createdAt,value
2023-04-27T00:01:26.356Z,99040.56
2023-04-27T00:06:34.651Z,99033.31
2023-04-27T00:11:41.195Z,99028.38
2023-04-27T00:16:46.383Z,99023.03
2023-04-27T00:21:54.178Z,99020.78
2023-04-27T00:27:00.121Z,99016.47
2023-04-27T00:32:05.135Z,99016.16
2023-04-27T00:37:12.958Z,99017.13
2023-04-27T00:42:19.878Z,99023.09
2023-04-27T00:47:29.472Z,99019.41
2023-04-27T00:52:38.048Z,99023.91
2023-04-27T00:57:44.187Z,99031.78
2023-04-27T01:02:50.495Z,99037.97
2023-04-27T01:07:58.550Z,99038.63
2023-04-27T01:13:05.834Z,99037.38
2023-04-27T01:18:11.008Z,99043.94
2023-04-27T01:23:19.610Z,99042.91
2023-04-27T01:28:24.766Z,99043.56
2023-04-27T01:33:29.886Z,99036.84
2023-04-27T01:38:39.277Z,99045.13
2023-04-27T01:43:45.030Z,99038.00
2023-04-27T01:48:50.064Z,99049.53
2023-04-27T01:53:57.617Z,99053.09
2023-04-27T01:59:02.691Z,99054.81
2023-04-27T02:04:08.669Z,99055.56
2023-04-27T02:09:16.615Z,99059.03
2023-04-27T02:14:21.658Z,99058.44
2023-04-27T02:19:27.058Z,99063.16
2023-04-27T02:24:34.677Z,99057.38
2023-04-27T02:29:39.798Z,99065.75
2023-04-27T02:34:46.192Z,99073.56
2023-04-27T02:39:53.835Z,99069.63
2023-04-27T02:45:01.203Z,99064.56
2023-04-27T02:50:06.590Z,99068.34
2023-04-27T02:55:16.332Z,99065.72
2023-04-27T03:00:22.235Z,99068.59
2023-04-27T03:05:35.126Z,99062.81
2023-04-27T03:10:42.818Z,99076.72
2023-04-27T03:15:48.094Z,99073.41
2023-04-27T03:20:55.323Z,99080.63
2023-04-27T03:26:03.311Z,99089.34
2023-04-27T03:31:09.352Z,99092.97
2023-04-27T03:36:14.803Z,99098.38
2023-04-27T03:41:24.895Z,99107.81
2023-04-27T03:46:30.400Z,99110.13
2023-04-27T03:51:37.144Z,99114.00
2023-04-27T03:56:58.284Z,99125.81
2023-04-27T04:02:05.700Z,99120.91
2023-04-27T04:07:10.923Z,99121.56
2023-04-27T04:12:19.005Z,99127.66
2023-04-27T04:17:24.129Z,99131.38
2023-04-27T04:22:29.303Z,99131.81
2023-04-27T04:27:39.509Z,99131.97
2023-04-27T04:32:45.231Z,99132.09
2023-04-27T04:37:53.568Z,99131.19
2023-04-27T04:43:02.011Z,99144.34
2023-04-27T04:48:09.897Z,99143.03
2023-04-27T04:53:15.248Z,99146.16
2023-04-27T04:58:26.372Z,99156.06
2023-04-27T05:03:34.710Z,99158.59
2023-04-27T05:08:40.845Z,99163.69
2023-04-27T05:13:48.674Z,99166.09
2023-04-27T05:18:55.064Z,99168.22
2023-04-27T05:24:00.488Z,99165.34
2023-04-27T05:29:09.998Z,99169.00
2023-04-27T05:34:15.335Z,99162.56
2023-04-27T05:39:20.648Z,99164.25
2023-04-27T05:44:30.063Z,99171.19
2023-04-27T05:49:37.142Z,99161.44
2023-04-27T05:54:44.564Z,99164.41
2023-04-27T05:59:55.077Z,99151.16
2023-04-27T06:05:00.247Z,99155.34
2023-04-27T06:10:05.455Z,99150.75
2023-04-27T06:15:14.246Z,99148.50
2023-04-27T06:20:19.653Z,99150.16
2023-04-27T06:25:27.666Z,99149.50
2023-04-27T06:30:37.499Z,99151.34
2023-04-27T06:35:45.099Z,99141.19
2023-04-27T06:40:54.997Z,99149.69
2023-04-27T06:46:03.162Z,99154.69
2023-04-27T06:51:09.031Z,99161.72
2023-04-27T06:56:19.279Z,99161.66
2023-04-27T07:01:27.589Z,99163.94
2023-04-27T07:06:34.980Z,99156.53
2023-04-27T07:11:42.992Z,99169.47
2023-04-27T07:16:53.108Z,99167.56
2023-04-27T07:21:59.838Z,99170.50
2023-04-27T07:27:05.985Z,99167.41
2023-04-27T07:32:16.637Z,99158.91
2023-04-27T07:37:22.109Z,99156.41
2023-04-27T07:42:28.111Z,99159.88
2023-04-27T07:47:37.580Z,99174.56
2023-04-27T07:52:45.264Z,99157.03
2023-04-27T07:57:52.633Z,99160.72
2023-04-27T08:03:03.661Z,99159.16
2023-04-27T08:08:12.879Z,99171.38
2023-04-27T08:13:18.620Z,99170.47
2023-04-27T08:18:27.550Z,99170.41
2023-04-27T08:23:33.749Z,99161.84
2023-04-27T08:28:41.357Z,99180.00
2023-04-27T08:33:49.218Z,99182.63
2023-04-27T08:38:54.954Z,99183.44
2023-04-27T08:44:00.168Z,99183.13
2023-04-27T08:49:10.149Z,99179.09
2023-04-27T08:54:15.337Z,99170.16
2023-04-27T08:59:20.628Z,99178.31
2023-04-27T09:04:40.336Z,99172.19
2023-04-27T09:09:50.455Z,99174.53
2023-04-27T09:15:03.952Z,99174.94
2023-04-27T09:20:16.576Z,99180.66
2023-04-27T09:25:32.226Z,99172.34
2023-04-27T09:30:40.377Z,99177.88
2023-04-27T09:35:52.378Z,99166.81
2023-04-27T09:41:00.147Z,99169.97
2023-04-27T09:46:08.103Z,99167.03
2023-04-27T09:51:18.287Z,99160.09
2023-04-27T09:56:37.959Z,99154.50
2023-04-27T10:01:51.465Z,99153.91
2023-04-27T10:07:04.100Z,99148.31
2023-04-27T10:12:39.570Z,99150.06
2023-04-27T10:17:53.370Z,99160.47
2023-04-27T10:23:02.371Z,99148.28
2023-04-27T10:28:08.466Z,99153.50
2023-04-27T10:33:15.781Z,99159.50
2023-04-27T10:38:26.581Z,99159.84
2023-04-27T10:43:34.177Z,99162.03
2023-04-27T10:48:41.995Z,99155.09
2023-04-27T10:53:57.804Z,99148.31
2023-04-27T10:59:09.515Z,99143.06
2023-04-27T11:04:14.779Z,99146.78
2023-04-27T11:09:31.792Z,99160.13
2023-04-27T11:14:37.777Z,99152.03
2023-04-27T11:19:52.590Z,99151.84
2023-04-27T11:25:02.966Z,99150.28
2023-04-27T11:30:28.941Z,99151.16
2023-04-27T11:35:39.437Z,99148.22
2023-04-27T11:40:50.719Z,99141.88
2023-04-27T11:45:57.241Z,99142.16
2023-04-27T11:51:02.440Z,99143.75
2023-04-27T11:56:13.580Z,99140.00
2023-04-27T12:01:27.690Z,99155.44
2023-04-27T12:06:54.444Z,99158.75
2023-04-27T12:12:02.996Z,99158.19
2023-04-27T12:17:11.161Z,99159.41
2023-04-27T12:22:16.630Z,99163.59
2023-04-27T12:27:24.853Z,99170.91
2023-04-27T12:32:29.912Z,99159.09
2023-04-27T12:37:35.411Z,99164.22
2023-04-27T12:43:04.060Z,99154.28
2023-04-27T12:48:10.046Z,99174.63
2023-04-27T12:53:15.304Z,99168.16
2023-04-27T12:58:23.166Z,99165.97
2023-04-27T13:03:28.352Z,99171.13
2023-04-27T13:08:34.080Z,99163.72
2023-04-27T13:13:42.059Z,99157.81
2023-04-27T13:18:50.805Z,99160.22
2023-04-27T13:24:00.324Z,99150.22
2023-04-27T13:29:09.688Z,99146.72
2023-04-27T13:34:15.848Z,99141.13
2023-04-27T13:39:22.242Z,99140.28
2023-04-27T13:44:31.567Z,99148.47
2023-04-27T13:49:37.281Z,99139.50
2023-04-27T13:54:42.336Z,99138.94
2023-04-27T13:59:50.163Z,99136.75
2023-04-27T14:04:56.857Z,99129.81
2023-04-27T14:10:04.035Z,99137.03
2023-04-27T14:15:13.234Z,99135.84
2023-04-27T14:20:18.702Z,99130.41
2023-04-27T14:31:37.624Z,99122.41
2023-04-27T14:36:51.266Z,99118.59
2023-04-27T14:41:57.326Z,99107.53
2023-04-27T14:47:07.028Z,99110.41
2023-04-27T14:52:14.544Z,99118.44
2023-04-27T14:57:21.745Z,99114.78
2023-04-27T15:02:31.207Z,99126.63
2023-04-27T15:07:38.567Z,99118.56
2023-04-27T15:12:43.688Z,99120.41
2023-04-27T15:17:53.467Z,99130.03
2023-04-27T15:23:01.732Z,99132.13
2023-04-27T15:28:08.477Z,99131.16
2023-04-27T15:33:17.019Z,99123.47
2023-04-27T15:38:25.253Z,99127.41
2023-04-27T15:43:32.323Z,99115.22
2023-04-27T15:48:40.171Z,99119.25
2023-04-27T15:53:45.197Z,99113.50
2023-04-27T15:58:50.327Z,99112.22
2023-04-27T16:03:58.582Z,99101.47
2023-04-27T16:09:04.174Z,99106.16
2023-04-27T16:14:14.260Z,99099.00
2023-04-27T16:19:22.650Z,99094.31
2023-04-27T16:24:32.155Z,99084.97
2023-04-27T16:29:38.841Z,99077.84
2023-04-27T16:34:49.642Z,99080.22
2023-04-27T16:39:54.687Z,99076.72
2023-04-27T16:45:00.151Z,99083.47
2023-04-27T16:50:09.807Z,99081.75
2023-04-27T16:55:17.355Z,99076.28
2023-04-27T17:00:25.580Z,99081.06
2023-04-27T17:05:35.439Z,99085.88
2023-04-27T17:10:40.980Z,99091.09
2023-04-27T17:15:46.546Z,99102.09
2023-04-27T17:20:55.661Z,99100.88
2023-04-27T17:26:04.220Z,99096.44
2023-04-27T17:31:09.645Z,99094.38
2023-04-27T17:36:20.911Z,99100.41
2023-04-27T17:41:26.247Z,99102.19
2023-04-27T17:46:33.570Z,99103.69
2023-04-27T17:51:42.575Z,99104.03
2023-04-27T17:56:47.988Z,99111.84
2023-04-27T18:01:53.788Z,99112.09
2023-04-27T18:07:03.800Z,99122.75
2023-04-27T18:12:11.324Z,99121.81
2023-04-27T18:17:16.704Z,99116.69
2023-04-27T18:22:24.744Z,99128.44
2023-04-27T18:27:31.896Z,99133.88
2023-04-27T18:32:37.941Z,99139.72
2023-04-27T18:37:48.494Z,99141.16
2023-04-27T18:42:54.367Z,99138.69
2023-04-27T18:47:59.890Z,99147.66
2023-04-27T18:53:07.714Z,99155.66
2023-04-27T18:58:14.856Z,99159.38
2023-04-27T19:03:20.069Z,99170.09
2023-04-27T19:08:27.965Z,99182.44
2023-04-27T19:13:33.045Z,99171.06
2023-04-27T19:18:39.449Z,99166.16
2023-04-27T19:23:50.880Z,99182.34
2023-04-27T19:28:56.322Z,99183.31
2023-04-27T19:34:04.107Z,99182.00
2023-04-27T19:39:27.298Z,99189.13
2023-04-27T19:44:32.273Z,99182.28
2023-04-27T19:49:37.351Z,99180.97
2023-04-27T19:54:45.001Z,99172.91
2023-04-27T19:59:50.046Z,99165.66
2023-04-27T20:04:55.890Z,99164.19
2023-04-27T20:10:04.747Z,99158.69
2023-04-27T20:15:13.826Z,99159.22
2023-04-27T20:20:21.382Z,99157.38
2023-04-27T20:25:31.428Z,99158.97
2023-04-27T20:30:36.666Z,99162.16
2023-04-27T20:35:42.944Z,99159.00
2023-04-27T20:40:52.774Z,99147.66
2023-04-27T20:45:58.846Z,99157.44
2023-04-27T20:51:08.621Z,99155.56
2023-04-27T20:56:17.048Z,99160.34
2023-04-27T21:01:22.138Z,99162.97
2023-04-27T21:06:27.374Z,99154.00
2023-04-27T21:11:35.034Z,99146.25
2023-04-27T21:16:40.760Z,99148.84
2023-04-27T21:21:46.683Z,99130.75
2023-04-27T21:26:55.871Z,99134.56
2023-04-27T21:32:02.257Z,99132.00
2023-04-27T21:37:07.340Z,99138.50
2023-04-27T21:42:16.395Z,99121.41
2023-04-27T21:47:21.736Z,99131.09
2023-04-27T21:52:27.263Z,99126.28
2023-04-27T21:57:35.431Z,99126.13
2023-04-27T22:02:40.780Z,99114.47
2023-04-27T22:07:48.113Z,99124.63
2023-04-27T22:13:00.210Z,99114.41
2023-04-27T22:18:08.797Z,99118.84
2023-04-27T22:23:16.892Z,99117.09
2023-04-27T22:28:24.660Z,99115.19
2023-04-27T22:33:29.894Z,99122.09
2023-04-27T22:38:35.127Z,99122.22
2023-04-27T22:43:43.194Z,99128.06
2023-04-27T22:48:48.785Z,99119.84
2023-04-27T22:53:56.274Z,99120.16
2023-04-27T22:59:04.308Z,99110.25
2023-04-27T23:04:09.575Z,99120.53
2023-04-27T23:09:15.038Z,99108.38
2023-04-27T23:14:22.795Z,99112.69
2023-04-27T23:19:27.853Z,99104.22
2023-04-27T23:24:34.177Z,99107.28
2023-04-27T23:29:44.159Z,99095.47
2023-04-27T23:34:49.201Z,99106.84
2023-04-27T23:39:54.319Z,99105.31
2023-04-27T23:45:02.542Z,99094.56
2023-04-27T23:50:08.665Z,99084.25
2023-04-27T23:55:15.328Z,99082.25
